sensor_id;sensor_type;location;lat;lon;timestamp;temperature;humidity
9987;DHT22;5033;46.310;11.214;2022-09-02T00:01:39;19.20;99.90
9987;DHT22;5033;46.310;11.214;2022-09-02T00:04:09;19.30;99.90
9987;DHT22;5033;46.310;11.214;2022-09-02T00:06:40;19.20;99.90
9987;DHT22;5033;46.310;11.214;2022-09-02T00:09:09;19.20;99.90
9987;DHT22;5033;46.310;11.214;2022-09-02T00:11:40;19.00;99.90
9987;DHT22;5033;46.310;11.214;2022-09-02T00:14:39;19.00;99.90
9987;DHT22;5033;46.310;11.214;2022-09-02T00:17:35;19.00;99.90
9987;DHT22;5033;46.310;11.214;2022-09-02T00:20:53;19.00;99.90
9987;DHT22;5033;46.310;11.214;2022-09-02T00:23:56;19.00;99.90
9987;DHT22;5033;46.310;11.214;2022-09-02T00:26:36;19.00;99.90
9987;DHT22;5033;46.310;11.214;2022-09-02T00:29:11;19.00;99.90
9987;DHT22;5033;46.310;11.214;2022-09-02T00:32:00;18.90;99.90
9987;DHT22;5033;46.310;11.214;2022-09-02T00:34:43;18.90;99.90
9987;DHT22;5033;46.310;11.214;2022-09-02T00:37:41;18.90;99.90
9987;DHT22;5033;46.310;11.214;2022-09-02T00:43:50;18.90;99.90
9987;DHT22;5033;46.310;11.214;2022-09-02T00:46:36;18.90;99.90
9987;DHT22;5033;46.310;11.214;2022-09-02T00:49:07;18.80;99.90
9987;DHT22;5033;46.310;11.214;2022-09-02T00:51:39;18.70;99.90
9987;DHT22;5033;46.310;11.214;2022-09-02T00:54:08;18.80;99.90
9987;DHT22;5033;46.310;11.214;2022-09-02T00:56:37;18.70;99.90
9987;DHT22;5033;46.310;11.214;2022-09-02T00:59:09;18.70;99.90
9987;DHT22;5033;46.310;11.214;2022-09-02T01:01:39;18.70;99.90
9987;DHT22;5033;46.310;11.214;2022-09-02T01:04:06;18.70;99.90
9987;DHT22;5033;46.310;11.214;2022-09-02T01:06:33;18.70;99.90
9987;DHT22;5033;46.310;11.214;2022-09-02T01:09:05;18.80;99.90
9987;DHT22;5033;46.310;11.214;2022-09-02T01:11:38;18.90;99.90
9987;DHT22;5033;46.310;11.214;2022-09-02T01:14:07;19.00;99.90
9987;DHT22;5033;46.310;11.214;2022-09-02T01:16:40;18.90;99.90
9987;DHT22;5033;46.310;11.214;2022-09-02T01:19:13;18.90;99.90
9987;DHT22;5033;46.310;11.214;2022-09-02T01:21:47;19.00;99.90
9987;DHT22;5033;46.310;11.214;2022-09-02T01:24:15;19.00;99.90
9987;DHT22;5033;46.310;11.214;2022-09-02T01:26:43;19.10;99.90
9987;DHT22;5033;46.310;11.214;2022-09-02T01:29:10;19.00;99.90
9987;DHT22;5033;46.310;11.214;2022-09-02T01:31:37;19.00;99.90
9987;DHT22;5033;46.310;11.214;2022-09-02T01:34:05;18.90;99.90
9987;DHT22;5033;46.310;11.214;2022-09-02T01:36:34;18.90;99.90
9987;DHT22;5033;46.310;11.214;2022-09-02T01:39:04;18.90;99.90
9987;DHT22;5033;46.310;11.214;2022-09-02T01:41:31;18.90;99.90
9987;DHT22;5033;46.310;11.214;2022-09-02T01:43:58;18.90;99.90
9987;DHT22;5033;46.310;11.214;2022-09-02T01:46:25;18.90;99.90
9987;DHT22;5033;46.310;11.214;2022-09-02T01:48:52;18.90;99.90
9987;DHT22;5033;46.310;11.214;2022-09-02T01:51:20;18.90;99.90
9987;DHT22;5033;46.310;11.214;2022-09-02T01:53:47;18.90;99.90
9987;DHT22;5033;46.310;11.214;2022-09-02T01:56:16;18.90;99.90
9987;DHT22;5033;46.310;11.214;2022-09-02T01:58:43;18.90;99.90
9987;DHT22;5033;46.310;11.214;2022-09-02T02:01:10;18.90;99.90
9987;DHT22;5033;46.310;11.214;2022-09-02T02:03:37;18.90;99.90
9987;DHT22;5033;46.310;11.214;2022-09-02T02:06:08;19.00;99.90
9987;DHT22;5033;46.310;11.214;2022-09-02T02:08:36;19.00;99.90
9987;DHT22;5033;46.310;11.214;2022-09-02T02:11:03;19.00;99.90
9987;DHT22;5033;46.310;11.214;2022-09-02T02:13:32;19.00;99.90
9987;DHT22;5033;46.310;11.214;2022-09-02T02:15:59;19.00;99.90
9987;DHT22;5033;46.310;11.214;2022-09-02T02:18:26;19.00;99.90
9987;DHT22;5033;46.310;11.214;2022-09-02T02:20:54;19.10;99.90
9987;DHT22;5033;46.310;11.214;2022-09-02T02:23:21;19.10;99.90
9987;DHT22;5033;46.310;11.214;2022-09-02T02:25:49;19.10;99.90
9987;DHT22;5033;46.310;11.214;2022-09-02T02:28:16;19.10;99.90
9987;DHT22;5033;46.310;11.214;2022-09-02T02:30:45;19.00;99.90
9987;DHT22;5033;46.310;11.214;2022-09-02T02:33:12;19.00;99.90
9987;DHT22;5033;46.310;11.214;2022-09-02T02:35:40;19.00;99.90
9987;DHT22;5033;46.310;11.214;2022-09-02T02:38:08;19.00;99.90
9987;DHT22;5033;46.310;11.214;2022-09-02T02:40:35;19.00;99.90
9987;DHT22;5033;46.310;11.214;2022-09-02T02:43:03;19.00;99.90
9987;DHT22;5033;46.310;11.214;2022-09-02T02:45:30;19.00;99.90
9987;DHT22;5033;46.310;11.214;2022-09-02T02:47:59;19.00;99.90
9987;DHT22;5033;46.310;11.214;2022-09-02T02:50:26;19.00;99.90
9987;DHT22;5033;46.310;11.214;2022-09-02T02:52:53;19.00;99.90
9987;DHT22;5033;46.310;11.214;2022-09-02T02:55:22;18.90;99.90
9987;DHT22;5033;46.310;11.214;2022-09-02T02:57:49;18.90;99.90
9987;DHT22;5033;46.310;11.214;2022-09-02T03:00:19;18.80;99.90
9987;DHT22;5033;46.310;11.214;2022-09-02T03:02:47;18.80;99.90
9987;DHT22;5033;46.310;11.214;2022-09-02T03:05:16;18.80;99.90
9987;DHT22;5033;46.310;11.214;2022-09-02T03:07:43;18.80;99.90
9987;DHT22;5033;46.310;11.214;2022-09-02T03:10:11;18.60;99.90
9987;DHT22;5033;46.310;11.214;2022-09-02T03:12:39;18.60;99.90
9987;DHT22;5033;46.310;11.214;2022-09-02T03:15:07;18.60;99.90
9987;DHT22;5033;46.310;11.214;2022-09-02T03:17:35;18.50;99.90
9987;DHT22;5033;46.310;11.214;2022-09-02T03:20:04;18.60;99.90
9987;DHT22;5033;46.310;11.214;2022-09-02T03:22:34;18.60;99.90
9987;DHT22;5033;46.310;11.214;2022-09-02T03:25:04;18.70;99.90
9987;DHT22;5033;46.310;11.214;2022-09-02T03:27:31;18.60;99.90
9987;DHT22;5033;46.310;11.214;2022-09-02T03:29:59;18.60;99.90
9987;DHT22;5033;46.310;11.214;2022-09-02T03:32:26;18.60;99.90
9987;DHT22;5033;46.310;11.214;2022-09-02T03:34:54;18.70;99.90
9987;DHT22;5033;46.310;11.214;2022-09-02T03:37:21;18.70;99.90
9987;DHT22;5033;46.310;11.214;2022-09-02T03:39:49;18.70;99.90
9987;DHT22;5033;46.310;11.214;2022-09-02T03:42:16;18.70;99.90
9987;DHT22;5033;46.310;11.214;2022-09-02T03:44:43;18.70;99.90
9987;DHT22;5033;46.310;11.214;2022-09-02T03:47:10;18.60;99.90
9987;DHT22;5033;46.310;11.214;2022-09-02T03:49:39;18.60;99.90
9987;DHT22;5033;46.310;11.214;2022-09-02T03:52:06;18.50;99.90
9987;DHT22;5033;46.310;11.214;2022-09-02T03:54:33;18.50;99.90
9987;DHT22;5033;46.310;11.214;2022-09-02T03:57:01;18.50;99.90
9987;DHT22;5033;46.310;11.214;2022-09-02T03:59:28;18.50;99.90
9987;DHT22;5033;46.310;11.214;2022-09-02T04:01:56;18.60;99.90
9987;DHT22;5033;46.310;11.214;2022-09-02T04:04:23;18.60;99.90
9987;DHT22;5033;46.310;11.214;2022-09-02T04:06:50;18.60;99.90
9987;DHT22;5033;46.310;11.214;2022-09-02T04:09:17;18.60;99.90
9987;DHT22;5033;46.310;11.214;2022-09-02T04:11:44;18.60;99.90
9987;DHT22;5033;46.310;11.214;2022-09-02T04:14:13;18.60;99.90
9987;DHT22;5033;46.310;11.214;2022-09-02T04:16:40;18.50;99.90
9987;DHT22;5033;46.310;11.214;2022-09-02T04:19:08;18.60;99.90
9987;DHT22;5033;46.310;11.214;2022-09-02T04:21:37;18.60;99.90
9987;DHT22;5033;46.310;11.214;2022-09-02T04:24:05;18.60;99.90
9987;DHT22;5033;46.310;11.214;2022-09-02T04:26:34;18.60;99.90
9987;DHT22;5033;46.310;11.214;2022-09-02T04:29:01;18.60;99.90
9987;DHT22;5033;46.310;11.214;2022-09-02T04:31:29;18.60;99.90
9987;DHT22;5033;46.310;11.214;2022-09-02T04:33:57;18.60;99.90
9987;DHT22;5033;46.310;11.214;2022-09-02T04:36:25;18.50;99.90
9987;DHT22;5033;46.310;11.214;2022-09-02T04:38:53;18.50;99.90
9987;DHT22;5033;46.310;11.214;2022-09-02T04:41:22;18.60;99.90
9987;DHT22;5033;46.310;11.214;2022-09-02T04:43:49;18.60;99.90
9987;DHT22;5033;46.310;11.214;2022-09-02T04:46:18;18.60;99.90
9987;DHT22;5033;46.310;11.214;2022-09-02T04:48:47;18.60;99.90
9987;DHT22;5033;46.310;11.214;2022-09-02T04:51:16;18.60;99.90
9987;DHT22;5033;46.310;11.214;2022-09-02T04:53:44;18.60;99.90
9987;DHT22;5033;46.310;11.214;2022-09-02T04:56:13;18.60;99.90
9987;DHT22;5033;46.310;11.214;2022-09-02T04:58:41;18.60;99.90
9987;DHT22;5033;46.310;11.214;2022-09-02T05:01:10;18.70;99.90
9987;DHT22;5033;46.310;11.214;2022-09-02T05:03:38;18.70;99.90
9987;DHT22;5033;46.310;11.214;2022-09-02T05:06:11;18.80;99.90
9987;DHT22;5033;46.310;11.214;2022-09-02T05:08:39;18.80;99.90
9987;DHT22;5033;46.310;11.214;2022-09-02T05:11:07;18.80;99.90
9987;DHT22;5033;46.310;11.214;2022-09-02T05:13:35;18.90;99.90
9987;DHT22;5033;46.310;11.214;2022-09-02T05:16:02;18.90;99.90
9987;DHT22;5033;46.310;11.214;2022-09-02T05:18:29;18.90;99.90
9987;DHT22;5033;46.310;11.214;2022-09-02T05:20:56;18.90;99.90
9987;DHT22;5033;46.310;11.214;2022-09-02T05:23:25;18.90;99.90
9987;DHT22;5033;46.310;11.214;2022-09-02T05:25:52;18.90;99.90
9987;DHT22;5033;46.310;11.214;2022-09-02T05:28:19;19.00;99.90
9987;DHT22;5033;46.310;11.214;2022-09-02T05:30:46;19.00;99.90
9987;DHT22;5033;46.310;11.214;2022-09-02T05:33:13;19.00;99.90
9987;DHT22;5033;46.310;11.214;2022-09-02T05:35:41;19.00;99.90
9987;DHT22;5033;46.310;11.214;2022-09-02T05:38:08;19.00;99.90
9987;DHT22;5033;46.310;11.214;2022-09-02T05:40:37;19.00;99.90
9987;DHT22;5033;46.310;11.214;2022-09-02T05:43:05;19.00;99.90
9987;DHT22;5033;46.310;11.214;2022-09-02T05:45:32;19.00;99.90
9987;DHT22;5033;46.310;11.214;2022-09-02T05:47:59;19.10;99.90
9987;DHT22;5033;46.310;11.214;2022-09-02T05:50:48;19.00;99.90
9987;DHT22;5033;46.310;11.214;2022-09-02T05:53:15;19.00;99.90
9987;DHT22;5033;46.310;11.214;2022-09-02T05:55:43;19.00;99.90
9987;DHT22;5033;46.310;11.214;2022-09-02T05:58:10;19.10;99.90
9987;DHT22;5033;46.310;11.214;2022-09-02T06:00:37;19.10;99.90
9987;DHT22;5033;46.310;11.214;2022-09-02T06:03:05;19.20;99.90
9987;DHT22;5033;46.310;11.214;2022-09-02T06:05:32;19.20;99.90
9987;DHT22;5033;46.310;11.214;2022-09-02T06:08:00;19.20;99.90
9987;DHT22;5033;46.310;11.214;2022-09-02T06:10:27;19.20;99.90
9987;DHT22;5033;46.310;11.214;2022-09-02T06:12:56;19.20;99.90
9987;DHT22;5033;46.310;11.214;2022-09-02T06:15:24;19.20;99.90
9987;DHT22;5033;46.310;11.214;2022-09-02T06:17:55;19.20;99.90
9987;DHT22;5033;46.310;11.214;2022-09-02T06:20:24;19.50;99.90
9987;DHT22;5033;46.310;11.214;2022-09-02T06:22:53;20.00;99.90
9987;DHT22;5033;46.310;11.214;2022-09-02T06:25:20;20.60;99.90
9987;DHT22;5033;46.310;11.214;2022-09-02T06:27:47;20.90;99.90
9987;DHT22;5033;46.310;11.214;2022-09-02T06:30:16;21.10;99.90
9987;DHT22;5033;46.310;11.214;2022-09-02T06:32:43;21.40;99.90
9987;DHT22;5033;46.310;11.214;2022-09-02T06:35:14;21.50;99.90
9987;DHT22;5033;46.310;11.214;2022-09-02T06:37:41;21.40;99.90
9987;DHT22;5033;46.310;11.214;2022-09-02T06:40:09;21.20;99.90
9987;DHT22;5033;46.310;11.214;2022-09-02T06:42:36;21.00;99.90
9987;DHT22;5033;46.310;11.214;2022-09-02T06:45:04;20.80;99.90
9987;DHT22;5033;46.310;11.214;2022-09-02T06:47:33;20.60;99.90
9987;DHT22;5033;46.310;11.214;2022-09-02T06:50:01;20.60;99.90
9987;DHT22;5033;46.310;11.214;2022-09-02T06:52:28;20.60;99.90
9987;DHT22;5033;46.310;11.214;2022-09-02T06:54:55;20.60;99.90
9987;DHT22;5033;46.310;11.214;2022-09-02T06:57:22;20.60;99.90
9987;DHT22;5033;46.310;11.214;2022-09-02T06:59:49;20.60;99.90
9987;DHT22;5033;46.310;11.214;2022-09-02T07:02:16;20.40;99.90
9987;DHT22;5033;46.310;11.214;2022-09-02T07:04:45;20.30;99.90
9987;DHT22;5033;46.310;11.214;2022-09-02T07:07:30;20.40;99.90
9987;DHT22;5033;46.310;11.214;2022-09-02T07:09:57;20.60;99.90
9987;DHT22;5033;46.310;11.214;2022-09-02T07:12:24;20.60;99.90
9987;DHT22;5033;46.310;11.214;2022-09-02T07:14:52;20.50;99.90
9987;DHT22;5033;46.310;11.214;2022-09-02T07:17:20;20.50;99.90
9987;DHT22;5033;46.310;11.214;2022-09-02T07:19:49;20.40;99.90
9987;DHT22;5033;46.310;11.214;2022-09-02T07:22:18;20.30;99.90
9987;DHT22;5033;46.310;11.214;2022-09-02T07:24:45;20.40;99.90
9987;DHT22;5033;46.310;11.214;2022-09-02T07:27:12;20.40;99.90
9987;DHT22;5033;46.310;11.214;2022-09-02T07:29:39;20.40;99.90
9987;DHT22;5033;46.310;11.214;2022-09-02T07:32:09;20.40;99.90
9987;DHT22;5033;46.310;11.214;2022-09-02T07:34:36;20.50;99.90
9987;DHT22;5033;46.310;11.214;2022-09-02T07:37:04;20.60;99.90
9987;DHT22;5033;46.310;11.214;2022-09-02T07:39:31;20.60;99.90
9987;DHT22;5033;46.310;11.214;2022-09-02T07:41:59;20.70;99.90
9987;DHT22;5033;46.310;11.214;2022-09-02T07:44:26;20.80;99.90
9987;DHT22;5033;46.310;11.214;2022-09-02T07:46:54;20.80;99.90
9987;DHT22;5033;46.310;11.214;2022-09-02T07:49:21;20.90;99.90
9987;DHT22;5033;46.310;11.214;2022-09-02T07:51:49;21.20;99.90
9987;DHT22;5033;46.310;11.214;2022-09-02T07:54:20;21.70;99.90
9987;DHT22;5033;46.310;11.214;2022-09-02T07:56:47;22.20;99.90
9987;DHT22;5033;46.310;11.214;2022-09-02T07:59:15;22.30;99.90
9987;DHT22;5033;46.310;11.214;2022-09-02T08:01:42;22.60;99.90
9987;DHT22;5033;46.310;11.214;2022-09-02T08:04:10;22.90;99.90
9987;DHT22;5033;46.310;11.214;2022-09-02T08:06:38;23.50;99.90
9987;DHT22;5033;46.310;11.214;2022-09-02T08:09:07;23.70;99.90
9987;DHT22;5033;46.310;11.214;2022-09-02T08:11:38;23.70;99.90
9987;DHT22;5033;46.310;11.214;2022-09-02T08:14:06;24.00;99.90
9987;DHT22;5033;46.310;11.214;2022-09-02T08:16:34;24.30;99.90
9987;DHT22;5033;46.310;11.214;2022-09-02T08:19:01;24.60;99.90
9987;DHT22;5033;46.310;11.214;2022-09-02T08:21:28;24.70;99.90
9987;DHT22;5033;46.310;11.214;2022-09-02T08:23:55;24.40;99.90
9987;DHT22;5033;46.310;11.214;2022-09-02T08:26:23;24.00;99.90
9987;DHT22;5033;46.310;11.214;2022-09-02T08:28:52;23.50;99.90
9987;DHT22;5033;46.310;11.214;2022-09-02T08:31:19;23.20;99.90
9987;DHT22;5033;46.310;11.214;2022-09-02T08:33:46;22.90;99.90
9987;DHT22;5033;46.310;11.214;2022-09-02T08:36:14;23.00;99.90
9987;DHT22;5033;46.310;11.214;2022-09-02T08:38:41;23.10;99.90
9987;DHT22;5033;46.310;11.214;2022-09-02T08:41:19;23.30;99.90
9987;DHT22;5033;46.310;11.214;2022-09-02T08:43:47;23.40;99.90
9987;DHT22;5033;46.310;11.214;2022-09-02T08:46:17;23.50;99.90
9987;DHT22;5033;46.310;11.214;2022-09-02T08:48:52;23.50;99.90
9987;DHT22;5033;46.310;11.214;2022-09-02T08:51:26;23.40;99.90
9987;DHT22;5033;46.310;11.214;2022-09-02T08:53:59;23.50;99.90
9987;DHT22;5033;46.310;11.214;2022-09-02T08:56:28;23.70;99.90
9987;DHT22;5033;46.310;11.214;2022-09-02T08:58:56;23.70;99.90
9987;DHT22;5033;46.310;11.214;2022-09-02T09:01:36;23.60;99.90
9987;DHT22;5033;46.310;11.214;2022-09-02T09:04:15;23.70;99.90
9987;DHT22;5033;46.310;11.214;2022-09-02T09:06:56;24.40;99.90
9987;DHT22;5033;46.310;11.214;2022-09-02T09:09:33;24.60;99.90
9987;DHT22;5033;46.310;11.214;2022-09-02T09:12:08;24.60;99.90
9987;DHT22;5033;46.310;11.214;2022-09-02T09:14:45;24.70;99.90
9987;DHT22;5033;46.310;11.214;2022-09-02T09:17:20;24.50;99.90
9987;DHT22;5033;46.310;11.214;2022-09-02T09:19:53;24.50;99.90
9987;DHT22;5033;46.310;11.214;2022-09-02T09:22:27;24.30;99.90
9987;DHT22;5033;46.310;11.214;2022-09-02T09:24:56;24.00;99.90
9987;DHT22;5033;46.310;11.214;2022-09-02T09:27:24;23.80;99.90
9987;DHT22;5033;46.310;11.214;2022-09-02T09:29:52;23.50;99.90
9987;DHT22;5033;46.310;11.214;2022-09-02T09:32:26;23.40;99.90
9987;DHT22;5033;46.310;11.214;2022-09-02T09:34:58;23.50;99.90
9987;DHT22;5033;46.310;11.214;2022-09-02T09:37:32;23.50;99.90
9987;DHT22;5033;46.310;11.214;2022-09-02T09:40:00;23.70;99.90
9987;DHT22;5033;46.310;11.214;2022-09-02T09:42:31;23.70;99.90
9987;DHT22;5033;46.310;11.214;2022-09-02T09:44:58;23.80;99.90
9987;DHT22;5033;46.310;11.214;2022-09-02T09:47:27;23.70;99.90
9987;DHT22;5033;46.310;11.214;2022-09-02T09:50:10;23.60;99.90
9987;DHT22;5033;46.310;11.214;2022-09-02T09:52:38;23.50;99.90
9987;DHT22;5033;46.310;11.214;2022-09-02T09:55:12;23.30;99.90
9987;DHT22;5033;46.310;11.214;2022-09-02T09:57:41;23.30;99.90
9987;DHT22;5033;46.310;11.214;2022-09-02T10:00:27;23.30;99.90
9987;DHT22;5033;46.310;11.214;2022-09-02T10:02:59;23.50;99.90
9987;DHT22;5033;46.310;11.214;2022-09-02T10:05:31;23.70;99.90
9987;DHT22;5033;46.310;11.214;2022-09-02T10:08:00;24.10;99.90
9987;DHT22;5033;46.310;11.214;2022-09-02T10:10:29;24.40;99.90
9987;DHT22;5033;46.310;11.214;2022-09-02T10:13:01;24.70;99.90
9987;DHT22;5033;46.310;11.214;2022-09-02T10:15:47;24.80;99.90
9987;DHT22;5033;46.310;11.214;2022-09-02T10:18:25;24.90;99.90
9987;DHT22;5033;46.310;11.214;2022-09-02T10:21:00;24.90;99.90
9987;DHT22;5033;46.310;11.214;2022-09-02T10:23:40;24.90;99.90
9987;DHT22;5033;46.310;11.214;2022-09-02T10:26:19;24.90;99.90
9987;DHT22;5033;46.310;11.214;2022-09-02T10:29:35;25.00;99.90
9987;DHT22;5033;46.310;11.214;2022-09-02T10:32:20;24.80;99.90
9987;DHT22;5033;46.310;11.214;2022-09-02T10:34:59;24.80;99.90
9987;DHT22;5033;46.310;11.214;2022-09-02T10:37:35;25.10;99.90
9987;DHT22;5033;46.310;11.214;2022-09-02T10:40:09;25.10;99.90
9987;DHT22;5033;46.310;11.214;2022-09-02T10:42:47;25.20;99.90
9987;DHT22;5033;46.310;11.214;2022-09-02T10:45:30;25.00;99.90
9987;DHT22;5033;46.310;11.214;2022-09-02T10:48:17;24.80;99.90
9987;DHT22;5033;46.310;11.214;2022-09-02T10:50:50;24.70;99.90
9987;DHT22;5033;46.310;11.214;2022-09-02T10:53:42;24.80;99.90
9987;DHT22;5033;46.310;11.214;2022-09-02T10:56:16;25.00;99.90
9987;DHT22;5033;46.310;11.214;2022-09-02T10:58:53;25.00;99.90
9987;DHT22;5033;46.310;11.214;2022-09-02T11:01:25;25.10;99.90
9987;DHT22;5033;46.310;11.214;2022-09-02T11:04:01;25.20;99.90
9987;DHT22;5033;46.310;11.214;2022-09-02T11:06:37;25.00;99.90
9987;DHT22;5033;46.310;11.214;2022-09-02T11:09:08;25.10;99.90
9987;DHT22;5033;46.310;11.214;2022-09-02T11:11:41;25.20;99.90
9987;DHT22;5033;46.310;11.214;2022-09-02T11:14:16;24.90;99.90
9987;DHT22;5033;46.310;11.214;2022-09-02T11:16:49;24.80;99.90
9987;DHT22;5033;46.310;11.214;2022-09-02T11:19:20;25.00;99.90
9987;DHT22;5033;46.310;11.214;2022-09-02T11:21:58;25.10;99.90
9987;DHT22;5033;46.310;11.214;2022-09-02T11:24:32;25.20;99.90
9987;DHT22;5033;46.310;11.214;2022-09-02T11:27:08;25.30;99.90
9987;DHT22;5033;46.310;11.214;2022-09-02T11:29:43;25.20;99.90
9987;DHT22;5033;46.310;11.214;2022-09-02T11:32:18;25.40;99.90
9987;DHT22;5033;46.310;11.214;2022-09-02T11:34:51;25.50;99.90
9987;DHT22;5033;46.310;11.214;2022-09-02T11:37:28;25.20;99.90
9987;DHT22;5033;46.310;11.214;2022-09-02T11:39:59;25.50;99.90
9987;DHT22;5033;46.310;11.214;2022-09-02T11:42:39;25.80;99.90
9987;DHT22;5033;46.310;11.214;2022-09-02T11:45:27;25.90;99.90
9987;DHT22;5033;46.310;11.214;2022-09-02T11:48:34;25.90;99.90
9987;DHT22;5033;46.310;11.214;2022-09-02T11:51:39;25.70;99.90
9987;DHT22;5033;46.310;11.214;2022-09-02T11:54:12;25.60;99.90
9987;DHT22;5033;46.310;11.214;2022-09-02T11:56:43;25.60;99.90
9987;DHT22;5033;46.310;11.214;2022-09-02T11:59:19;25.50;99.90
9987;DHT22;5033;46.310;11.214;2022-09-02T12:01:49;25.50;99.90
9987;DHT22;5033;46.310;11.214;2022-09-02T12:04:20;25.70;99.90
9987;DHT22;5033;46.310;11.214;2022-09-02T12:07:24;25.70;99.90
9987;DHT22;5033;46.310;11.214;2022-09-02T12:09:54;25.90;99.90
9987;DHT22;5033;46.310;11.214;2022-09-02T12:15:30;26.10;99.90
9987;DHT22;5033;46.310;11.214;2022-09-02T12:18:12;26.10;99.90
9987;DHT22;5033;46.310;11.214;2022-09-02T12:21:08;26.10;99.90
9987;DHT22;5033;46.310;11.214;2022-09-02T12:24:02;26.00;99.90
9987;DHT22;5033;46.310;11.214;2022-09-02T12:27:23;26.00;99.90
9987;DHT22;5033;46.310;11.214;2022-09-02T12:29:54;26.00;99.90
9987;DHT22;5033;46.310;11.214;2022-09-02T12:33:03;26.00;99.90
9987;DHT22;5033;46.310;11.214;2022-09-02T12:43:18;26.10;99.90
9987;DHT22;5033;46.310;11.214;2022-09-02T14:42:51;25.70;99.90
9987;DHT22;5033;46.310;11.214;2022-09-02T14:45:47;25.60;99.90
9987;DHT22;5033;46.310;11.214;2022-09-02T14:48:43;25.30;99.90
9987;DHT22;5033;46.310;11.214;2022-09-02T14:51:56;25.20;99.90
9987;DHT22;5033;46.310;11.214;2022-09-02T15:01:19;25.20;99.90
9987;DHT22;5033;46.310;11.214;2022-09-02T15:07:18;25.20;99.90
9987;DHT22;5033;46.310;11.214;2022-09-02T15:10:17;25.00;99.90
9987;DHT22;5033;46.310;11.214;2022-09-02T15:12:48;25.20;99.90
9987;DHT22;5033;46.310;11.214;2022-09-02T15:15:17;25.10;99.90
9987;DHT22;5033;46.310;11.214;2022-09-02T15:17:44;25.00;99.90
9987;DHT22;5033;46.310;11.214;2022-09-02T15:20:11;24.80;99.90
9987;DHT22;5033;46.310;11.214;2022-09-02T15:22:38;24.80;99.90
9987;DHT22;5033;46.310;11.214;2022-09-02T15:25:07;24.90;99.90
9987;DHT22;5033;46.310;11.214;2022-09-02T15:27:34;24.90;99.90
9987;DHT22;5033;46.310;11.214;2022-09-02T15:30:03;24.70;99.90
9987;DHT22;5033;46.310;11.214;2022-09-02T15:32:32;24.50;99.90
9987;DHT22;5033;46.310;11.214;2022-09-02T15:35:00;24.30;99.90
9987;DHT22;5033;46.310;11.214;2022-09-02T15:37:27;24.20;99.90
9987;DHT22;5033;46.310;11.214;2022-09-02T15:39:54;24.10;99.90
9987;DHT22;5033;46.310;11.214;2022-09-02T15:42:21;24.10;99.90
9987;DHT22;5033;46.310;11.214;2022-09-02T15:44:48;24.10;99.90
9987;DHT22;5033;46.310;11.214;2022-09-02T15:47:15;24.00;99.90
9987;DHT22;5033;46.310;11.214;2022-09-02T15:49:44;24.10;99.90
9987;DHT22;5033;46.310;11.214;2022-09-02T15:52:11;24.00;99.90
9987;DHT22;5033;46.310;11.214;2022-09-02T15:54:39;24.00;99.90
9987;DHT22;5033;46.310;11.214;2022-09-02T15:57:07;23.90;99.90
9987;DHT22;5033;46.310;11.214;2022-09-02T15:59:36;23.80;99.90
9987;DHT22;5033;46.310;11.214;2022-09-02T16:02:03;23.70;99.90
9987;DHT22;5033;46.310;11.214;2022-09-02T16:04:30;23.70;99.90
9987;DHT22;5033;46.310;11.214;2022-09-02T16:06:59;23.60;99.90
9987;DHT22;5033;46.310;11.214;2022-09-02T16:09:26;23.60;99.90
9987;DHT22;5033;46.310;11.214;2022-09-02T16:11:54;23.60;99.90
9987;DHT22;5033;46.310;11.214;2022-09-02T16:14:22;23.50;99.90
9987;DHT22;5033;46.310;11.214;2022-09-02T16:16:51;23.50;99.90
9987;DHT22;5033;46.310;11.214;2022-09-02T16:19:19;23.40;99.90
9987;DHT22;5033;46.310;11.214;2022-09-02T16:21:46;23.30;99.90
9987;DHT22;5033;46.310;11.214;2022-09-02T16:24:16;23.20;99.90
9987;DHT22;5033;46.310;11.214;2022-09-02T16:26:44;23.00;99.90
9987;DHT22;5033;46.310;11.214;2022-09-02T16:29:13;23.00;99.90
9987;DHT22;5033;46.310;11.214;2022-09-02T16:31:42;22.90;99.90
9987;DHT22;5033;46.310;11.214;2022-09-02T16:34:11;22.90;99.90
9987;DHT22;5033;46.310;11.214;2022-09-02T16:36:41;22.80;99.90
9987;DHT22;5033;46.310;11.214;2022-09-02T16:39:09;22.80;99.90
9987;DHT22;5033;46.310;11.214;2022-09-02T16:41:39;22.80;99.90
9987;DHT22;5033;46.310;11.214;2022-09-02T16:44:10;22.80;99.90
9987;DHT22;5033;46.310;11.214;2022-09-02T16:46:37;22.80;99.90
9987;DHT22;5033;46.310;11.214;2022-09-02T16:49:06;22.70;99.90
9987;DHT22;5033;46.310;11.214;2022-09-02T16:51:34;22.80;99.90
9987;DHT22;5033;46.310;11.214;2022-09-02T16:54:02;22.80;99.90
9987;DHT22;5033;46.310;11.214;2022-09-02T16:56:30;22.70;99.90
9987;DHT22;5033;46.310;11.214;2022-09-02T16:59:01;22.70;99.90
9987;DHT22;5033;46.310;11.214;2022-09-02T17:01:29;22.80;99.90
9987;DHT22;5033;46.310;11.214;2022-09-02T17:03:56;22.70;99.90
9987;DHT22;5033;46.310;11.214;2022-09-02T17:06:24;22.70;99.90
9987;DHT22;5033;46.310;11.214;2022-09-02T17:08:51;22.70;99.90
9987;DHT22;5033;46.310;11.214;2022-09-02T17:11:21;22.60;99.90
9987;DHT22;5033;46.310;11.214;2022-09-02T17:13:50;22.50;99.90
9987;DHT22;5033;46.310;11.214;2022-09-02T17:16:23;22.50;99.90
9987;DHT22;5033;46.310;11.214;2022-09-02T17:18:51;22.40;99.90
9987;DHT22;5033;46.310;11.214;2022-09-02T17:21:24;22.40;99.90
9987;DHT22;5033;46.310;11.214;2022-09-02T17:23:52;22.40;99.90
9987;DHT22;5033;46.310;11.214;2022-09-02T17:26:21;22.40;99.90
9987;DHT22;5033;46.310;11.214;2022-09-02T17:28:49;22.40;99.90
9987;DHT22;5033;46.310;11.214;2022-09-02T17:31:22;22.30;99.90
9987;DHT22;5033;46.310;11.214;2022-09-02T17:33:51;22.30;99.90
9987;DHT22;5033;46.310;11.214;2022-09-02T17:36:19;22.20;99.90
9987;DHT22;5033;46.310;11.214;2022-09-02T17:38:47;22.20;99.90
9987;DHT22;5033;46.310;11.214;2022-09-02T17:41:14;22.10;99.90
9987;DHT22;5033;46.310;11.214;2022-09-02T17:43:59;22.10;99.90
9987;DHT22;5033;46.310;11.214;2022-09-02T17:46:27;22.10;99.90
9987;DHT22;5033;46.310;11.214;2022-09-02T17:48:54;22.00;99.90
9987;DHT22;5033;46.310;11.214;2022-09-02T17:51:22;22.00;99.90
9987;DHT22;5033;46.310;11.214;2022-09-02T17:53:50;22.00;99.90
9987;DHT22;5033;46.310;11.214;2022-09-02T17:56:40;21.90;99.90
9987;DHT22;5033;46.310;11.214;2022-09-02T17:59:26;21.90;99.90
9987;DHT22;5033;46.310;11.214;2022-09-02T18:02:28;21.90;99.90
9987;DHT22;5033;46.310;11.214;2022-09-02T18:05:02;21.90;99.90
9987;DHT22;5033;46.310;11.214;2022-09-02T18:07:37;21.80;99.90
9987;DHT22;5033;46.310;11.214;2022-09-02T18:10:07;21.80;99.90
9987;DHT22;5033;46.310;11.214;2022-09-02T18:12:35;21.80;99.90
9987;DHT22;5033;46.310;11.214;2022-09-02T18:15:03;21.70;99.90
9987;DHT22;5033;46.310;11.214;2022-09-02T18:17:35;21.70;99.90
9987;DHT22;5033;46.310;11.214;2022-09-02T18:20:08;21.70;99.90
9987;DHT22;5033;46.310;11.214;2022-09-02T18:22:47;21.70;99.90
9987;DHT22;5033;46.310;11.214;2022-09-02T18:25:24;21.70;99.90
9987;DHT22;5033;46.310;11.214;2022-09-02T18:28:07;21.70;99.90
9987;DHT22;5033;46.310;11.214;2022-09-02T18:30:44;21.70;99.90
9987;DHT22;5033;46.310;11.214;2022-09-02T18:33:37;21.70;99.90
9987;DHT22;5033;46.310;11.214;2022-09-02T18:36:16;21.70;99.90